sensor_id;sensor_type;location;lat;lon;timestamp;P1;durP1;ratioP1;P2;durP2;ratioP2
72261;SDS011;60173;52.112;8.648;2022-09-09T00:00:31;2.05;;;1.00;;
72261;SDS011;60173;52.112;8.648;2022-09-09T00:04:05;2.35;;;1.20;;
72261;SDS011;60173;52.112;8.648;2022-09-09T00:09:10;2.90;;;1.17;;
72261;SDS011;60173;52.112;8.648;2022-09-09T00:11:46;2.35;;;1.35;;
72261;SDS011;60173;52.112;8.648;2022-09-09T00:17:19;4.18;;;1.42;;
72261;SDS011;60173;52.112;8.648;2022-09-09T00:20:42;3.45;;;1.15;;
72261;SDS011;60173;52.112;8.648;2022-09-09T00:28:38;5.80;;;1.35;;
72261;SDS011;60173;52.112;8.648;2022-09-09T00:31:11;2.30;;;1.10;;
72261;SDS011;60173;52.112;8.648;2022-09-09T00:33:40;3.03;;;1.20;;
72261;SDS011;60173;52.112;8.648;2022-09-09T00:36:14;3.22;;;1.15;;
72261;SDS011;60173;52.112;8.648;2022-09-09T00:38:55;3.58;;;1.45;;
72261;SDS011;60173;52.112;8.648;2022-09-09T00:44:37;7.20;;;1.75;;
72261;SDS011;60173;52.112;8.648;2022-09-09T00:47:06;3.63;;;1.00;;
72261;SDS011;60173;52.112;8.648;2022-09-09T00:58:02;7.68;;;1.80;;
72261;SDS011;60173;52.112;8.648;2022-09-09T01:00:29;3.75;;;1.50;;
72261;SDS011;60173;52.112;8.648;2022-09-09T01:08:32;4.32;;;1.58;;
72261;SDS011;60173;52.112;8.648;2022-09-09T01:11:16;3.90;;;1.40;;
72261;SDS011;60173;52.112;8.648;2022-09-09T01:13:49;3.60;;;1.30;;
72261;SDS011;60173;52.112;8.648;2022-09-09T01:16:22;4.88;;;1.50;;
72261;SDS011;60173;52.112;8.648;2022-09-09T01:18:49;2.75;;;1.20;;
72261;SDS011;60173;52.112;8.648;2022-09-09T01:23:56;3.95;;;1.50;;
72261;SDS011;60173;52.112;8.648;2022-09-09T01:26:46;5.13;;;1.55;;
72261;SDS011;60173;52.112;8.648;2022-09-09T01:29:16;5.30;;;1.48;;
72261;SDS011;60173;52.112;8.648;2022-09-09T01:31:55;4.15;;;1.20;;
72261;SDS011;60173;52.112;8.648;2022-09-09T01:34:29;5.00;;;1.42;;
72261;SDS011;60173;52.112;8.648;2022-09-09T01:37:02;3.30;;;1.30;;
72261;SDS011;60173;52.112;8.648;2022-09-09T01:39:37;4.05;;;1.70;;
72261;SDS011;60173;52.112;8.648;2022-09-09T01:42:07;7.00;;;1.70;;
72261;SDS011;60173;52.112;8.648;2022-09-09T01:44:36;4.18;;;1.50;;
72261;SDS011;60173;52.112;8.648;2022-09-09T01:47:04;6.18;;;1.75;;
72261;SDS011;60173;52.112;8.648;2022-09-09T01:49:31;4.88;;;1.95;;
72261;SDS011;60173;52.112;8.648;2022-09-09T01:51:58;4.03;;;1.70;;
72261;SDS011;60173;52.112;8.648;2022-09-09T01:54:26;4.60;;;1.90;;
72261;SDS011;60173;52.112;8.648;2022-09-09T02:07:49;4.95;;;1.38;;
72261;SDS011;60173;52.112;8.648;2022-09-09T02:13:02;4.38;;;1.70;;
72261;SDS011;60173;52.112;8.648;2022-09-09T02:15:35;4.60;;;1.42;;
72261;SDS011;60173;52.112;8.648;2022-09-09T02:18:06;3.05;;;1.45;;
72261;SDS011;60173;52.112;8.648;2022-09-09T02:20:34;2.42;;;1.20;;
72261;SDS011;60173;52.112;8.648;2022-09-09T02:23:04;4.85;;;1.40;;
72261;SDS011;60173;52.112;8.648;2022-09-09T02:25:32;3.40;;;1.38;;
72261;SDS011;60173;52.112;8.648;2022-09-09T02:28:00;3.78;;;1.35;;
72261;SDS011;60173;52.112;8.648;2022-09-09T02:30:29;1.95;;;1.20;;
72261;SDS011;60173;52.112;8.648;2022-09-09T02:33:00;3.22;;;1.30;;
72261;SDS011;60173;52.112;8.648;2022-09-09T02:35:30;2.97;;;1.50;;
72261;SDS011;60173;52.112;8.648;2022-09-09T02:37:59;3.20;;;1.30;;
72261;SDS011;60173;52.112;8.648;2022-09-09T02:40:29;2.75;;;1.20;;
72261;SDS011;60173;52.112;8.648;2022-09-09T02:42:56;2.55;;;1.25;;
72261;SDS011;60173;52.112;8.648;2022-09-09T02:45:23;4.68;;;1.30;;
72261;SDS011;60173;52.112;8.648;2022-09-09T02:48:04;2.88;;;1.55;;
72261;SDS011;60173;52.112;8.648;2022-09-09T02:50:54;4.95;;;1.33;;
72261;SDS011;60173;52.112;8.648;2022-09-09T02:53:24;2.83;;;1.10;;
72261;SDS011;60173;52.112;8.648;2022-09-09T02:56:04;4.07;;;1.40;;
72261;SDS011;60173;52.112;8.648;2022-09-09T02:58:34;4.43;;;1.33;;
72261;SDS011;60173;52.112;8.648;2022-09-09T03:01:02;5.95;;;1.45;;
72261;SDS011;60173;52.112;8.648;2022-09-09T03:03:29;3.13;;;1.17;;
72261;SDS011;60173;52.112;8.648;2022-09-09T03:05:55;2.75;;;1.23;;
72261;SDS011;60173;52.112;8.648;2022-09-09T03:08:22;2.65;;;1.40;;
72261;SDS011;60173;52.112;8.648;2022-09-09T03:10:48;1.50;;;1.10;;
72261;SDS011;60173;52.112;8.648;2022-09-09T03:13:14;3.05;;;1.45;;
72261;SDS011;60173;52.112;8.648;2022-09-09T03:15:41;5.15;;;1.60;;
72261;SDS011;60173;52.112;8.648;2022-09-09T03:18:08;4.38;;;1.42;;
72261;SDS011;60173;52.112;8.648;2022-09-09T03:20:34;4.78;;;1.40;;
72261;SDS011;60173;52.112;8.648;2022-09-09T03:23:00;3.58;;;1.40;;
72261;SDS011;60173;52.112;8.648;2022-09-09T03:25:27;6.97;;;1.83;;
72261;SDS011;60173;52.112;8.648;2022-09-09T03:27:54;2.15;;;1.13;;
72261;SDS011;60173;52.112;8.648;2022-09-09T03:30:21;3.47;;;1.08;;
72261;SDS011;60173;52.112;8.648;2022-09-09T03:32:48;2.30;;;1.17;;
72261;SDS011;60173;52.112;8.648;2022-09-09T03:35:15;3.40;;;1.10;;
72261;SDS011;60173;52.112;8.648;2022-09-09T03:37:41;6.00;;;1.45;;
72261;SDS011;60173;52.112;8.648;2022-09-09T03:40:08;5.18;;;1.38;;
72261;SDS011;60173;52.112;8.648;2022-09-09T03:42:35;4.25;;;1.40;;
72261;SDS011;60173;52.112;8.648;2022-09-09T03:45:05;4.10;;;1.23;;
72261;SDS011;60173;52.112;8.648;2022-09-09T03:47:33;3.72;;;1.48;;
72261;SDS011;60173;52.112;8.648;2022-09-09T03:49:59;3.15;;;1.55;;
72261;SDS011;60173;52.112;8.648;2022-09-09T03:52:26;4.13;;;1.50;;
72261;SDS011;60173;52.112;8.648;2022-09-09T03:54:53;3.88;;;1.48;;
72261;SDS011;60173;52.112;8.648;2022-09-09T03:57:27;3.30;;;1.67;;
72261;SDS011;60173;52.112;8.648;2022-09-09T03:59:53;4.72;;;1.40;;
72261;SDS011;60173;52.112;8.648;2022-09-09T04:02:20;3.95;;;1.73;;
72261;SDS011;60173;52.112;8.648;2022-09-09T04:04:46;5.68;;;1.70;;
72261;SDS011;60173;52.112;8.648;2022-09-09T04:07:12;2.50;;;1.30;;
72261;SDS011;60173;52.112;8.648;2022-09-09T04:09:39;2.25;;;1.42;;
72261;SDS011;60173;52.112;8.648;2022-09-09T04:12:05;4.93;;;2.17;;
72261;SDS011;60173;52.112;8.648;2022-09-09T04:14:32;3.78;;;1.58;;
72261;SDS011;60173;52.112;8.648;2022-09-09T04:16:58;4.47;;;1.50;;
72261;SDS011;60173;52.112;8.648;2022-09-09T04:19:25;4.88;;;1.70;;
72261;SDS011;60173;52.112;8.648;2022-09-09T04:21:51;7.57;;;2.15;;
72261;SDS011;60173;52.112;8.648;2022-09-09T04:24:17;3.83;;;1.55;;
72261;SDS011;60173;52.112;8.648;2022-09-09T04:26:44;4.72;;;1.70;;
72261;SDS011;60173;52.112;8.648;2022-09-09T04:29:10;5.18;;;2.00;;
72261;SDS011;60173;52.112;8.648;2022-09-09T04:31:37;4.85;;;1.73;;
72261;SDS011;60173;52.112;8.648;2022-09-09T04:34:03;5.22;;;2.10;;
72261;SDS011;60173;52.112;8.648;2022-09-09T04:36:29;2.92;;;1.60;;
72261;SDS011;60173;52.112;8.648;2022-09-09T04:38:56;5.07;;;1.90;;
72261;SDS011;60173;52.112;8.648;2022-09-09T04:41:22;6.93;;;2.47;;
72261;SDS011;60173;52.112;8.648;2022-09-09T04:43:48;4.10;;;1.88;;
72261;SDS011;60173;52.112;8.648;2022-09-09T04:46:15;7.43;;;2.20;;
72261;SDS011;60173;52.112;8.648;2022-09-09T04:48:42;4.53;;;2.30;;
72261;SDS011;60173;52.112;8.648;2022-09-09T04:51:09;6.95;;;1.90;;
72261;SDS011;60173;52.112;8.648;2022-09-09T04:53:37;5.05;;;2.00;;
72261;SDS011;60173;52.112;8.648;2022-09-09T04:56:05;5.78;;;2.10;;
72261;SDS011;60173;52.112;8.648;2022-09-09T04:58:33;8.88;;;2.60;;
72261;SDS011;60173;52.112;8.648;2022-09-09T05:01:03;6.57;;;1.90;;
72261;SDS011;60173;52.112;8.648;2022-09-09T05:03:33;4.65;;;2.00;;
72261;SDS011;60173;52.112;8.648;2022-09-09T05:06:03;6.78;;;2.75;;
72261;SDS011;60173;52.112;8.648;2022-09-09T05:08:34;7.45;;;2.47;;
72261;SDS011;60173;52.112;8.648;2022-09-09T05:11:01;9.00;;;2.42;;
72261;SDS011;60173;52.112;8.648;2022-09-09T05:13:28;5.07;;;2.03;;
72261;SDS011;60173;52.112;8.648;2022-09-09T05:15:54;4.18;;;2.10;;
72261;SDS011;60173;52.112;8.648;2022-09-09T05:18:21;7.20;;;2.30;;
72261;SDS011;60173;52.112;8.648;2022-09-09T05:20:48;7.80;;;2.40;;
72261;SDS011;60173;52.112;8.648;2022-09-09T05:23:15;6.72;;;2.63;;
72261;SDS011;60173;52.112;8.648;2022-09-09T05:25:41;4.35;;;2.08;;
72261;SDS011;60173;52.112;8.648;2022-09-09T05:28:07;6.85;;;2.92;;
72261;SDS011;60173;52.112;8.648;2022-09-09T05:30:34;6.90;;;2.50;;
72261;SDS011;60173;52.112;8.648;2022-09-09T05:33:00;7.32;;;2.65;;
72261;SDS011;60173;52.112;8.648;2022-09-09T05:35:26;7.20;;;2.50;;
72261;SDS011;60173;52.112;8.648;2022-09-09T05:37:53;8.00;;;2.55;;
72261;SDS011;60173;52.112;8.648;2022-09-09T05:40:19;6.00;;;2.63;;
72261;SDS011;60173;52.112;8.648;2022-09-09T05:42:45;5.43;;;2.85;;
72261;SDS011;60173;52.112;8.648;2022-09-09T05:45:12;7.82;;;3.30;;
72261;SDS011;60173;52.112;8.648;2022-09-09T05:47:38;7.00;;;2.95;;
72261;SDS011;60173;52.112;8.648;2022-09-09T05:50:04;12.18;;;3.58;;
72261;SDS011;60173;52.112;8.648;2022-09-09T05:52:31;7.72;;;3.10;;
72261;SDS011;60173;52.112;8.648;2022-09-09T05:54:57;6.32;;;2.90;;
72261;SDS011;60173;52.112;8.648;2022-09-09T05:57:24;4.90;;;2.60;;
72261;SDS011;60173;52.112;8.648;2022-09-09T05:59:50;9.57;;;3.38;;
72261;SDS011;60173;52.112;8.648;2022-09-09T06:02:16;7.22;;;2.47;;
72261;SDS011;60173;52.112;8.648;2022-09-09T06:04:43;4.70;;;2.53;;
72261;SDS011;60173;52.112;8.648;2022-09-09T06:07:09;5.60;;;1.98;;
72261;SDS011;60173;52.112;8.648;2022-09-09T06:09:35;5.13;;;1.90;;
72261;SDS011;60173;52.112;8.648;2022-09-09T06:12:02;5.90;;;2.15;;
72261;SDS011;60173;52.112;8.648;2022-09-09T06:14:28;4.28;;;1.70;;
72261;SDS011;60173;52.112;8.648;2022-09-09T06:16:54;4.65;;;1.77;;
72261;SDS011;60173;52.112;8.648;2022-09-09T06:19:21;3.88;;;1.75;;
72261;SDS011;60173;52.112;8.648;2022-09-09T06:21:47;3.38;;;1.80;;
72261;SDS011;60173;52.112;8.648;2022-09-09T06:24:13;5.53;;;2.22;;
72261;SDS011;60173;52.112;8.648;2022-09-09T06:26:40;6.88;;;2.08;;
72261;SDS011;60173;52.112;8.648;2022-09-09T06:29:06;6.68;;;2.33;;
72261;SDS011;60173;52.112;8.648;2022-09-09T06:31:34;4.90;;;1.77;;
72261;SDS011;60173;52.112;8.648;2022-09-09T06:34:02;10.35;;;2.10;;
72261;SDS011;60173;52.112;8.648;2022-09-09T06:36:32;3.67;;;1.80;;
72261;SDS011;60173;52.112;8.648;2022-09-09T06:39:00;8.25;;;2.15;;
72261;SDS011;60173;52.112;8.648;2022-09-09T06:41:27;3.65;;;1.67;;
72261;SDS011;60173;52.112;8.648;2022-09-09T06:43:55;8.00;;;1.98;;
72261;SDS011;60173;52.112;8.648;2022-09-09T06:46:23;3.60;;;1.70;;
72261;SDS011;60173;52.112;8.648;2022-09-09T06:48:50;8.02;;;1.90;;
72261;SDS011;60173;52.112;8.648;2022-09-09T06:51:18;6.03;;;1.80;;
72261;SDS011;60173;52.112;8.648;2022-09-09T06:53:46;6.20;;;1.92;;
72261;SDS011;60173;52.112;8.648;2022-09-09T06:58:43;3.75;;;1.40;;
72261;SDS011;60173;52.112;8.648;2022-09-09T07:01:12;5.53;;;1.70;;
72261;SDS011;60173;52.112;8.648;2022-09-09T07:03:40;5.68;;;1.70;;
72261;SDS011;60173;52.112;8.648;2022-09-09T07:06:08;4.95;;;1.83;;
72261;SDS011;60173;52.112;8.648;2022-09-09T07:08:40;4.38;;;1.45;;
72261;SDS011;60173;52.112;8.648;2022-09-09T07:11:07;3.05;;;1.58;;
72261;SDS011;60173;52.112;8.648;2022-09-09T07:13:37;5.25;;;1.60;;
72261;SDS011;60173;52.112;8.648;2022-09-09T07:16:05;13.95;;;1.75;;
72261;SDS011;60173;52.112;8.648;2022-09-09T07:18:31;4.82;;;1.70;;
72261;SDS011;60173;52.112;8.648;2022-09-09T07:20:58;6.53;;;1.67;;
72261;SDS011;60173;52.112;8.648;2022-09-09T07:23:24;7.90;;;1.60;;
72261;SDS011;60173;52.112;8.648;2022-09-09T07:25:51;7.03;;;1.67;;
72261;SDS011;60173;52.112;8.648;2022-09-09T07:28:17;5.00;;;1.92;;
72261;SDS011;60173;52.112;8.648;2022-09-09T07:30:43;5.15;;;1.67;;
72261;SDS011;60173;52.112;8.648;2022-09-09T07:33:18;5.55;;;2.10;;
72261;SDS011;60173;52.112;8.648;2022-09-09T07:35:44;5.70;;;1.70;;
72261;SDS011;60173;52.112;8.648;2022-09-09T07:38:11;7.03;;;1.70;;
72261;SDS011;60173;52.112;8.648;2022-09-09T07:40:37;5.40;;;1.90;;
72261;SDS011;60173;52.112;8.648;2022-09-09T07:43:03;4.75;;;1.80;;
72261;SDS011;60173;52.112;8.648;2022-09-09T07:45:30;5.25;;;1.50;;
72261;SDS011;60173;52.112;8.648;2022-09-09T07:47:56;5.50;;;1.60;;
72261;SDS011;60173;52.112;8.648;2022-09-09T07:50:23;5.10;;;1.52;;
72261;SDS011;60173;52.112;8.648;2022-09-09T07:52:50;8.07;;;2.17;;
72261;SDS011;60173;52.112;8.648;2022-09-09T07:55:17;5.95;;;1.70;;
72261;SDS011;60173;52.112;8.648;2022-09-09T07:57:43;6.93;;;2.15;;
72261;SDS011;60173;52.112;8.648;2022-09-09T08:00:10;5.10;;;1.52;;
72261;SDS011;60173;52.112;8.648;2022-09-09T08:02:39;7.80;;;1.50;;
72261;SDS011;60173;52.112;8.648;2022-09-09T08:05:06;6.32;;;2.10;;
72261;SDS011;60173;52.112;8.648;2022-09-09T08:07:32;6.18;;;1.65;;
72261;SDS011;60173;52.112;8.648;2022-09-09T08:09:59;5.95;;;1.30;;
72261;SDS011;60173;52.112;8.648;2022-09-09T08:12:25;4.88;;;1.50;;
72261;SDS011;60173;52.112;8.648;2022-09-09T08:14:51;7.15;;;1.70;;
72261;SDS011;60173;52.112;8.648;2022-09-09T08:17:21;6.60;;;1.83;;
72261;SDS011;60173;52.112;8.648;2022-09-09T08:19:47;6.28;;;1.90;;
72261;SDS011;60173;52.112;8.648;2022-09-09T08:22:13;5.72;;;1.88;;
72261;SDS011;60173;52.112;8.648;2022-09-09T08:24:40;5.82;;;1.45;;
72261;SDS011;60173;52.112;8.648;2022-09-09T08:27:06;7.85;;;1.73;;
72261;SDS011;60173;52.112;8.648;2022-09-09T08:29:33;4.90;;;2.05;;
72261;SDS011;60173;52.112;8.648;2022-09-09T08:31:59;7.82;;;1.83;;
72261;SDS011;60173;52.112;8.648;2022-09-09T08:34:25;4.40;;;1.58;;
72261;SDS011;60173;52.112;8.648;2022-09-09T08:36:52;4.03;;;1.55;;
72261;SDS011;60173;52.112;8.648;2022-09-09T08:39:20;6.95;;;1.70;;
72261;SDS011;60173;52.112;8.648;2022-09-09T08:53:04;8.88;;;2.28;;
72261;SDS011;60173;52.112;8.648;2022-09-09T08:58:19;7.18;;;1.98;;
72261;SDS011;60173;52.112;8.648;2022-09-09T09:03:42;5.40;;;1.60;;
72261;SDS011;60173;52.112;8.648;2022-09-09T09:06:29;7.65;;;1.92;;
72261;SDS011;60173;52.112;8.648;2022-09-09T09:11:58;7.65;;;2.08;;
72261;SDS011;60173;52.112;8.648;2022-09-09T09:14:30;9.23;;;1.85;;
72261;SDS011;60173;52.112;8.648;2022-09-09T09:17:01;6.03;;;1.73;;
72261;SDS011;60173;52.112;8.648;2022-09-09T09:19:30;5.82;;;1.42;;
72261;SDS011;60173;52.112;8.648;2022-09-09T09:24:42;7.32;;;1.85;;
72261;SDS011;60173;52.112;8.648;2022-09-09T09:30:02;5.45;;;1.40;;
72261;SDS011;60173;52.112;8.648;2022-09-09T09:32:55;7.15;;;1.77;;
72261;SDS011;60173;52.112;8.648;2022-09-09T09:35:26;6.95;;;1.42;;
72261;SDS011;60173;52.112;8.648;2022-09-09T09:37:52;6.03;;;1.60;;
72261;SDS011;60173;52.112;8.648;2022-09-09T09:40:47;4.93;;;1.50;;
72261;SDS011;60173;52.112;8.648;2022-09-09T09:43:30;4.80;;;1.63;;
72261;SDS011;60173;52.112;8.648;2022-09-09T09:45:58;5.78;;;1.20;;
72261;SDS011;60173;52.112;8.648;2022-09-09T09:48:42;7.43;;;1.50;;
72261;SDS011;60173;52.112;8.648;2022-09-09T09:51:10;4.20;;;1.13;;
72261;SDS011;60173;52.112;8.648;2022-09-09T09:53:39;4.00;;;1.02;;
72261;SDS011;60173;52.112;8.648;2022-09-09T09:56:06;5.63;;;1.83;;
72261;SDS011;60173;52.112;8.648;2022-09-09T10:01:23;5.70;;;1.27;;
72261;SDS011;60173;52.112;8.648;2022-09-09T10:03:58;4.57;;;1.23;;
72261;SDS011;60173;52.112;8.648;2022-09-09T10:06:30;6.07;;;1.40;;
72261;SDS011;60173;52.112;8.648;2022-09-09T10:08:56;5.47;;;1.10;;
72261;SDS011;60173;52.112;8.648;2022-09-09T10:14:21;6.28;;;1.83;;
72261;SDS011;60173;52.112;8.648;2022-09-09T10:17:15;4.13;;;1.30;;
72261;SDS011;60173;52.112;8.648;2022-09-09T10:22:44;3.75;;;1.27;;
72261;SDS011;60173;52.112;8.648;2022-09-09T10:25:21;6.88;;;1.52;;
72261;SDS011;60173;52.112;8.648;2022-09-09T10:27:58;6.07;;;1.33;;
72261;SDS011;60173;52.112;8.648;2022-09-09T10:36:10;7.13;;;1.60;;
72261;SDS011;60173;52.112;8.648;2022-09-09T10:38:46;5.38;;;1.40;;
72261;SDS011;60173;52.112;8.648;2022-09-09T10:44:20;6.88;;;1.20;;
72261;SDS011;60173;52.112;8.648;2022-09-09T10:50:03;5.90;;;1.30;;
72261;SDS011;60173;52.112;8.648;2022-09-09T10:53:00;5.30;;;1.20;;
72261;SDS011;60173;52.112;8.648;2022-09-09T10:55:39;5.50;;;1.30;;
72261;SDS011;60173;52.112;8.648;2022-09-09T10:58:10;5.10;;;1.67;;
72261;SDS011;60173;52.112;8.648;2022-09-09T11:00:54;5.35;;;1.30;;
72261;SDS011;60173;52.112;8.648;2022-09-09T11:03:27;4.72;;;1.30;;
72261;SDS011;60173;52.112;8.648;2022-09-09T11:06:00;3.30;;;1.00;;
72261;SDS011;60173;52.112;8.648;2022-09-09T11:08:31;4.65;;;1.33;;
72261;SDS011;60173;52.112;8.648;2022-09-09T11:11:14;6.35;;;1.55;;
72261;SDS011;60173;52.112;8.648;2022-09-09T11:18:52;8.73;;;1.50;;
72261;SDS011;60173;52.112;8.648;2022-09-09T11:21:27;7.03;;;1.30;;
72261;SDS011;60173;52.112;8.648;2022-09-09T11:24:04;7.40;;;1.70;;
72261;SDS011;60173;52.112;8.648;2022-09-09T11:26:40;6.75;;;1.50;;
72261;SDS011;60173;52.112;8.648;2022-09-09T11:29:20;6.95;;;1.52;;
72261;SDS011;60173;52.112;8.648;2022-09-09T11:32:09;5.43;;;1.20;;
72261;SDS011;60173;52.112;8.648;2022-09-09T11:37:51;4.95;;;1.10;;
72261;SDS011;60173;52.112;8.648;2022-09-09T11:40:23;6.38;;;1.67;;
72261;SDS011;60173;52.112;8.648;2022-09-09T11:45:53;3.25;;;1.17;;
72261;SDS011;60173;52.112;8.648;2022-09-09T11:48:28;5.50;;;1.50;;
72261;SDS011;60173;52.112;8.648;2022-09-09T11:50:59;4.07;;;1.25;;
72261;SDS011;60173;52.112;8.648;2022-09-09T11:53:26;6.72;;;1.67;;
72261;SDS011;60173;52.112;8.648;2022-09-09T11:56:06;6.72;;;1.30;;
72261;SDS011;60173;52.112;8.648;2022-09-09T11:58:37;5.63;;;1.40;;
72261;SDS011;60173;52.112;8.648;2022-09-09T12:01:15;5.32;;;1.23;;
72261;SDS011;60173;52.112;8.648;2022-09-09T12:03:52;7.05;;;1.33;;
72261;SDS011;60173;52.112;8.648;2022-09-09T12:06:32;4.90;;;1.33;;
72261;SDS011;60173;52.112;8.648;2022-09-09T12:09:15;4.07;;;1.17;;
72261;SDS011;60173;52.112;8.648;2022-09-09T12:11:46;3.28;;;1.10;;
72261;SDS011;60173;52.112;8.648;2022-09-09T12:17:19;5.90;;;1.50;;
72261;SDS011;60173;52.112;8.648;2022-09-09T12:19:46;6.65;;;1.65;;
72261;SDS011;60173;52.112;8.648;2022-09-09T12:22:16;6.43;;;1.50;;
72261;SDS011;60173;52.112;8.648;2022-09-09T12:30:47;4.45;;;1.00;;
72261;SDS011;60173;52.112;8.648;2022-09-09T12:33:16;3.70;;;0.93;;
72261;SDS011;60173;52.112;8.648;2022-09-09T12:35:44;2.67;;;0.90;;
72261;SDS011;60173;52.112;8.648;2022-09-09T12:38:27;3.15;;;1.15;;
72261;SDS011;60173;52.112;8.648;2022-09-09T12:40:58;3.30;;;1.00;;
72261;SDS011;60173;52.112;8.648;2022-09-09T12:43:26;2.10;;;0.70;;
72261;SDS011;60173;52.112;8.648;2022-09-09T12:45:58;5.47;;;1.33;;
72261;SDS011;60173;52.112;8.648;2022-09-09T12:48:32;2.60;;;0.77;;
72261;SDS011;60173;52.112;8.648;2022-09-09T12:51:02;3.92;;;1.00;;
72261;SDS011;60173;52.112;8.648;2022-09-09T12:53:35;4.00;;;1.10;;
72261;SDS011;60173;52.112;8.648;2022-09-09T12:56:06;3.95;;;0.90;;
72261;SDS011;60173;52.112;8.648;2022-09-09T12:58:36;3.00;;;0.82;;
72261;SDS011;60173;52.112;8.648;2022-09-09T13:01:04;3.28;;;1.10;;
72261;SDS011;60173;52.112;8.648;2022-09-09T13:03:32;3.05;;;1.05;;
72261;SDS011;60173;52.112;8.648;2022-09-09T13:06:13;2.53;;;0.77;;
72261;SDS011;60173;52.112;8.648;2022-09-09T13:08:45;2.67;;;0.90;;
72261;SDS011;60173;52.112;8.648;2022-09-09T13:11:54;3.08;;;0.90;;
72261;SDS011;60173;52.112;8.648;2022-09-09T13:14:04;3.22;;;1.15;;
72261;SDS011;60173;52.112;8.648;2022-09-09T13:16:32;5.53;;;1.38;;
72261;SDS011;60173;52.112;8.648;2022-09-09T13:19:08;3.53;;;1.08;;
72261;SDS011;60173;52.112;8.648;2022-09-09T13:21:40;5.68;;;1.20;;
72261;SDS011;60173;52.112;8.648;2022-09-09T13:24:19;5.13;;;1.20;;
72261;SDS011;60173;52.112;8.648;2022-09-09T13:27:05;3.03;;;1.13;;
72261;SDS011;60173;52.112;8.648;2022-09-09T13:29:52;2.88;;;1.13;;
72261;SDS011;60173;52.112;8.648;2022-09-09T13:32:19;3.83;;;0.90;;
72261;SDS011;60173;52.112;8.648;2022-09-09T13:34:52;3.40;;;0.90;;
72261;SDS011;60173;52.112;8.648;2022-09-09T13:39:53;3.05;;;1.25;;
72261;SDS011;60173;52.112;8.648;2022-09-09T13:42:27;3.65;;;0.93;;
72261;SDS011;60173;52.112;8.648;2022-09-09T13:44:55;7.68;;;1.30;;
72261;SDS011;60173;52.112;8.648;2022-09-09T13:47:31;3.08;;;1.10;;
72261;SDS011;60173;52.112;8.648;2022-09-09T13:52:44;3.22;;;0.95;;
72261;SDS011;60173;52.112;8.648;2022-09-09T13:55:10;4.95;;;1.20;;
72261;SDS011;60173;52.112;8.648;2022-09-09T13:57:37;6.63;;;1.48;;
72261;SDS011;60173;52.112;8.648;2022-09-09T14:00:03;4.18;;;1.00;;
72261;SDS011;60173;52.112;8.648;2022-09-09T14:02:32;3.15;;;0.80;;
72261;SDS011;60173;52.112;8.648;2022-09-09T14:04:58;2.05;;;0.85;;
72261;SDS011;60173;52.112;8.648;2022-09-09T14:07:25;1.70;;;0.70;;
72261;SDS011;60173;52.112;8.648;2022-09-09T14:09:52;1.63;;;0.80;;
72261;SDS011;60173;52.112;8.648;2022-09-09T14:12:18;3.08;;;0.82;;
72261;SDS011;60173;52.112;8.648;2022-09-09T14:14:45;3.45;;;0.90;;
72261;SDS011;60173;52.112;8.648;2022-09-09T14:17:11;2.58;;;1.02;;
72261;SDS011;60173;52.112;8.648;2022-09-09T14:19:37;1.90;;;0.95;;
72261;SDS011;60173;52.112;8.648;2022-09-09T14:22:04;4.43;;;1.10;;
72261;SDS011;60173;52.112;8.648;2022-09-09T14:24:30;2.33;;;0.93;;
72261;SDS011;60173;52.112;8.648;2022-09-09T14:26:56;2.53;;;0.90;;
72261;SDS011;60173;52.112;8.648;2022-09-09T14:29:23;2.58;;;0.70;;
72261;SDS011;60173;52.112;8.648;2022-09-09T14:31:49;2.10;;;0.75;;
72261;SDS011;60173;52.112;8.648;2022-09-09T14:34:16;1.85;;;0.70;;
72261;SDS011;60173;52.112;8.648;2022-09-09T14:36:42;1.75;;;0.70;;
72261;SDS011;60173;52.112;8.648;2022-09-09T14:39:08;3.80;;;0.90;;
72261;SDS011;60173;52.112;8.648;2022-09-09T14:41:35;2.72;;;0.73;;
72261;SDS011;60173;52.112;8.648;2022-09-09T14:44:01;4.13;;;1.20;;
72261;SDS011;60173;52.112;8.648;2022-09-09T14:46:28;2.53;;;0.73;;
72261;SDS011;60173;52.112;8.648;2022-09-09T14:48:54;3.67;;;0.85;;
72261;SDS011;60173;52.112;8.648;2022-09-09T14:51:22;3.40;;;1.02;;
72261;SDS011;60173;52.112;8.648;2022-09-09T14:53:54;2.75;;;0.73;;
72261;SDS011;60173;52.112;8.648;2022-09-09T14:56:23;4.20;;;0.82;;
72261;SDS011;60173;52.112;8.648;2022-09-09T14:58:52;5.55;;;1.10;;
72261;SDS011;60173;52.112;8.648;2022-09-09T15:01:20;1.73;;;0.90;;
72261;SDS011;60173;52.112;8.648;2022-09-09T15:03:54;2.33;;;0.80;;
72261;SDS011;60173;52.112;8.648;2022-09-09T15:06:27;1.85;;;0.73;;
72261;SDS011;60173;52.112;8.648;2022-09-09T15:08:55;1.33;;;0.63;;
72261;SDS011;60173;52.112;8.648;2022-09-09T15:11:22;3.05;;;1.45;;
72261;SDS011;60173;52.112;8.648;2022-09-09T15:13:50;4.47;;;0.98;;
72261;SDS011;60173;52.112;8.648;2022-09-09T15:16:17;6.05;;;1.10;;
72261;SDS011;60173;52.112;8.648;2022-09-09T15:18:45;3.20;;;0.80;;
72261;SDS011;60173;52.112;8.648;2022-09-09T15:21:14;2.20;;;0.70;;
72261;SDS011;60173;52.112;8.648;2022-09-09T15:23:42;2.95;;;0.73;;
72261;SDS011;60173;52.112;8.648;2022-09-09T15:26:09;7.85;;;0.80;;
72261;SDS011;60173;52.112;8.648;2022-09-09T15:28:36;2.47;;;0.95;;
72261;SDS011;60173;52.112;8.648;2022-09-09T15:31:09;3.42;;;1.02;;
72261;SDS011;60173;52.112;8.648;2022-09-09T15:33:37;2.60;;;0.90;;
72261;SDS011;60173;52.112;8.648;2022-09-09T15:38:44;4.32;;;1.02;;
72261;SDS011;60173;52.112;8.648;2022-09-09T15:41:11;3.58;;;1.00;;
72261;SDS011;60173;52.112;8.648;2022-09-09T15:43:38;5.30;;;1.33;;
72261;SDS011;60173;52.112;8.648;2022-09-09T15:48:51;2.78;;;0.60;;
72261;SDS011;60173;52.112;8.648;2022-09-09T15:51:20;2.80;;;0.82;;
72261;SDS011;60173;52.112;8.648;2022-09-09T15:54:06;2.85;;;0.70;;
72261;SDS011;60173;52.112;8.648;2022-09-09T15:56:33;2.10;;;0.80;;
72261;SDS011;60173;52.112;8.648;2022-09-09T15:58:59;2.90;;;0.90;;
72261;SDS011;60173;52.112;8.648;2022-09-09T16:01:26;3.00;;;1.20;;
72261;SDS011;60173;52.112;8.648;2022-09-09T16:03:53;5.75;;;1.15;;
72261;SDS011;60173;52.112;8.648;2022-09-09T16:06:21;4.10;;;1.02;;
72261;SDS011;60173;52.112;8.648;2022-09-09T16:08:49;1.85;;;0.68;;
72261;SDS011;60173;52.112;8.648;2022-09-09T16:11:21;2.38;;;0.98;;
72261;SDS011;60173;52.112;8.648;2022-09-09T16:13:50;1.10;;;0.60;;
72261;SDS011;60173;52.112;8.648;2022-09-09T16:16:19;3.33;;;0.85;;
72261;SDS011;60173;52.112;8.648;2022-09-09T16:18:49;3.63;;;1.00;;
72261;SDS011;60173;52.112;8.648;2022-09-09T16:21:22;2.38;;;0.70;;
72261;SDS011;60173;52.112;8.648;2022-09-09T16:23:51;4.57;;;1.17;;
72261;SDS011;60173;52.112;8.648;2022-09-09T16:26:18;4.15;;;0.98;;
72261;SDS011;60173;52.112;8.648;2022-09-09T16:28:45;2.38;;;0.98;;
72261;SDS011;60173;52.112;8.648;2022-09-09T16:31:14;3.92;;;1.05;;
72261;SDS011;60173;52.112;8.648;2022-09-09T16:33:43;2.53;;;1.13;;
72261;SDS011;60173;52.112;8.648;2022-09-09T16:36:11;4.78;;;1.30;;
72261;SDS011;60173;52.112;8.648;2022-09-09T16:38:40;2.13;;;0.82;;
72261;SDS011;60173;52.112;8.648;2022-09-09T16:41:06;3.38;;;0.80;;
72261;SDS011;60173;52.112;8.648;2022-09-09T16:43:33;2.80;;;0.90;;
72261;SDS011;60173;52.112;8.648;2022-09-09T16:46:01;3.70;;;1.10;;
72261;SDS011;60173;52.112;8.648;2022-09-09T16:48:31;2.28;;;0.77;;
72261;SDS011;60173;52.112;8.648;2022-09-09T16:51:05;2.35;;;0.82;;
72261;SDS011;60173;52.112;8.648;2022-09-09T16:56:06;2.67;;;0.80;;
72261;SDS011;60173;52.112;8.648;2022-09-09T16:58:33;2.92;;;1.20;;
72261;SDS011;60173;52.112;8.648;2022-09-09T17:01:01;4.72;;;1.20;;
72261;SDS011;60173;52.112;8.648;2022-09-09T17:03:28;3.55;;;1.52;;
72261;SDS011;60173;52.112;8.648;2022-09-09T17:05:54;4.65;;;0.93;;
72261;SDS011;60173;52.112;8.648;2022-09-09T17:08:21;2.13;;;1.00;;
72261;SDS011;60173;52.112;8.648;2022-09-09T17:10:47;5.05;;;1.50;;